createdAt,value
2023-10-29T00:00:30.452Z,0
2023-10-29T00:01:46.707Z,0
2023-10-29T00:03:03.045Z,0
2023-10-29T00:04:19.328Z,0
2023-10-29T00:05:35.628Z,0
2023-10-29T00:06:51.913Z,0
2023-10-29T00:08:08.209Z,0
2023-10-29T00:09:24.477Z,0
2023-10-29T00:10:39.786Z,0
2023-10-29T00:11:56.105Z,0
2023-10-29T00:13:12.412Z,0
2023-10-29T00:14:28.677Z,0
2023-10-29T00:15:44.984Z,0
2023-10-29T00:17:01.253Z,0
2023-10-29T00:18:17.582Z,0
2023-10-29T00:19:33.832Z,0
2023-10-29T00:20:50.143Z,0
2023-10-29T00:22:06.449Z,0
2023-10-29T00:23:22.759Z,0
2023-10-29T00:24:39.015Z,0
2023-10-29T00:25:55.348Z,0
2023-10-29T00:27:10.645Z,0
2023-10-29T00:28:26.945Z,0
2023-10-29T00:29:43.235Z,0
2023-10-29T00:30:59.529Z,0
2023-10-29T00:32:15.821Z,0
2023-10-29T00:33:32.108Z,0
2023-10-29T00:34:48.378Z,0
2023-10-29T00:36:04.699Z,0
2023-10-29T00:37:20.957Z,0
2023-10-29T00:38:37.284Z,0
2023-10-29T00:39:53.583Z,0
2023-10-29T00:41:09.873Z,0
2023-10-29T00:42:26.130Z,0
2023-10-29T00:43:42.459Z,0
2023-10-29T00:44:57.732Z,0
2023-10-29T00:46:14.064Z,0
2023-10-29T00:47:30.325Z,0
2023-10-29T00:48:46.653Z,0
2023-10-29T00:50:02.911Z,0
2023-10-29T00:51:19.209Z,0
2023-10-29T00:52:35.525Z,0
2023-10-29T00:53:51.826Z,0
2023-10-29T00:55:08.120Z,0
2023-10-29T00:56:24.380Z,0
2023-10-29T00:57:40.667Z,0
2023-10-29T00:58:56.965Z,0
2023-10-29T01:00:13.286Z,0
2023-10-29T01:01:28.594Z,0
2023-10-29T01:02:44.861Z,0
2023-10-29T01:04:01.195Z,0
2023-10-29T01:05:17.493Z,0
2023-10-29T01:06:33.744Z,0
2023-10-29T01:07:50.060Z,0
2023-10-29T01:09:06.362Z,0
2023-10-29T01:10:22.653Z,0
2023-10-29T01:11:38.962Z,0
2023-10-29T01:12:55.212Z,0
2023-10-29T01:14:11.501Z,0
2023-10-29T01:15:27.836Z,0
2023-10-29T01:16:44.124Z,0
2023-10-29T01:17:59.436Z,0
2023-10-29T01:19:15.729Z,0
2023-10-29T01:20:32.014Z,0
2023-10-29T01:21:48.319Z,0
2023-10-29T01:23:04.567Z,0
2023-10-29T01:24:20.895Z,0
2023-10-29T01:25:37.165Z,0
2023-10-29T01:26:53.490Z,0
2023-10-29T01:28:09.774Z,0
2023-10-29T01:29:26.071Z,0
2023-10-29T01:30:42.328Z,0
2023-10-29T01:31:58.657Z,0
2023-10-29T01:33:14.956Z,0
2023-10-29T01:34:30.264Z,0
2023-10-29T01:35:46.566Z,0
2023-10-29T01:37:02.813Z,0
2023-10-29T01:38:19.115Z,0
2023-10-29T01:39:35.446Z,0
2023-10-29T01:40:51.729Z,0
2023-10-29T01:42:08.019Z,0
2023-10-29T01:43:24.312Z,0
2023-10-29T01:44:40.574Z,0
2023-10-29T01:45:56.881Z,0
2023-10-29T01:47:13.204Z,0
2023-10-29T01:48:29.500Z,0
2023-10-29T01:49:45.782Z,0
2023-10-29T01:51:01.069Z,0
2023-10-29T01:52:17.388Z,0
2023-10-29T01:53:33.649Z,0
2023-10-29T01:54:49.968Z,0
2023-10-29T01:56:06.275Z,0
2023-10-29T01:57:22.556Z,0
2023-10-29T01:58:38.848Z,0
2023-10-29T01:59:55.118Z,0
2023-10-29T02:01:11.438Z,0
2023-10-29T02:02:27.704Z,0
2023-10-29T02:03:43.990Z,0
2023-10-29T02:05:00.324Z,0
2023-10-29T02:06:16.607Z,0
2023-10-29T02:07:31.892Z,0
2023-10-29T02:08:48.178Z,0
2023-10-29T02:10:04.506Z,0
2023-10-29T02:11:20.808Z,0
2023-10-29T02:12:37.102Z,0
2023-10-29T02:13:53.395Z,0
2023-10-29T02:15:09.649Z,0
2023-10-29T02:16:25.937Z,0
2023-10-29T02:17:42.266Z,0
2023-10-29T02:18:58.572Z,0
2023-10-29T02:20:14.860Z,0
2023-10-29T02:21:31.153Z,0
2023-10-29T02:22:47.462Z,0
2023-10-29T02:24:02.767Z,0
2023-10-29T02:25:19.056Z,0
2023-10-29T02:26:35.303Z,0
2023-10-29T02:27:51.600Z,0
2023-10-29T02:29:07.896Z,0
2023-10-29T02:30:24.186Z,0
2023-10-29T02:31:40.522Z,0
2023-10-29T02:32:56.823Z,0
2023-10-29T02:34:13.099Z,0
2023-10-29T02:35:29.411Z,0
2023-10-29T02:36:45.705Z,0
2023-10-29T02:38:01.951Z,0
2023-10-29T02:39:18.273Z,0
2023-10-29T02:40:33.590Z,0
2023-10-29T02:41:49.875Z,0
2023-10-29T02:43:06.186Z,0
2023-10-29T02:44:22.468Z,0
2023-10-29T02:45:38.763Z,0
2023-10-29T02:46:55.057Z,0
2023-10-29T02:48:11.343Z,0
2023-10-29T02:49:27.635Z,0
2023-10-29T02:50:43.939Z,0
2023-10-29T02:52:00.196Z,0
2023-10-29T02:53:16.536Z,0
2023-10-29T02:54:32.812Z,0
2023-10-29T02:55:49.078Z,0
2023-10-29T02:57:04.416Z,0
2023-10-29T02:58:20.672Z,0
2023-10-29T02:59:37.003Z,0
2023-10-29T03:00:53.313Z,0
2023-10-29T03:02:09.588Z,0
2023-10-29T03:03:24.912Z,0
2023-10-29T03:04:41.164Z,0
2023-10-29T03:05:57.504Z,0
2023-10-29T03:07:13.757Z,0
2023-10-29T03:08:30.047Z,0
2023-10-29T03:09:46.389Z,0
2023-10-29T03:11:02.674Z,0
2023-10-29T03:12:18.968Z,0
2023-10-29T03:13:35.253Z,0
2023-10-29T03:14:51.555Z,0
2023-10-29T03:16:07.814Z,0
2023-10-29T03:17:24.137Z,0
2023-10-29T03:18:40.437Z,0
2023-10-29T03:19:55.747Z,0
2023-10-29T03:21:12.044Z,0
2023-10-29T03:22:28.295Z,0
2023-10-29T03:23:44.622Z,0
2023-10-29T03:25:00.873Z,0
2023-10-29T03:26:17.177Z,0
2023-10-29T03:27:33.507Z,0
2023-10-29T03:28:49.809Z,0
2023-10-29T03:30:06.061Z,0
2023-10-29T03:31:22.387Z,0
2023-10-29T03:32:38.639Z,0
2023-10-29T03:33:54.980Z,0
2023-10-29T03:35:11.265Z,0
2023-10-29T03:36:26.573Z,0
2023-10-29T03:37:42.842Z,0
2023-10-29T03:38:59.133Z,0
2023-10-29T03:40:15.449Z,0
2023-10-29T03:41:31.717Z,0
2023-10-29T03:42:48.016Z,0
2023-10-29T03:44:04.351Z,0
2023-10-29T03:45:20.640Z,0
2023-10-29T03:46:36.922Z,0
2023-10-29T03:47:53.214Z,0
2023-10-29T03:49:09.507Z,0
2023-10-29T03:50:25.760Z,0
2023-10-29T03:51:42.103Z,0
2023-10-29T03:52:57.411Z,0
2023-10-29T03:54:13.669Z,0
2023-10-29T03:55:29.997Z,0
2023-10-29T03:56:46.297Z,0
2023-10-29T03:58:02.536Z,0
2023-10-29T03:59:18.888Z,0
2023-10-29T04:00:35.125Z,0
2023-10-29T04:01:51.418Z,0
2023-10-29T04:03:07.760Z,0
2023-10-29T04:04:24.050Z,0
2023-10-29T04:05:40.334Z,0
2023-10-29T04:06:56.639Z,0
2023-10-29T04:08:12.933Z,0
2023-10-29T04:09:28.198Z,0
2023-10-29T04:10:44.493Z,0
2023-10-29T04:12:00.835Z,0
2023-10-29T04:13:17.123Z,0
2023-10-29T04:14:33.368Z,0
2023-10-29T04:15:49.713Z,0
2023-10-29T04:17:05.963Z,0
2023-10-29T04:18:22.294Z,0
2023-10-29T04:19:38.585Z,0
2023-10-29T04:20:54.842Z,0
2023-10-29T04:22:11.186Z,0
2023-10-29T04:23:27.473Z,0
2023-10-29T04:24:43.714Z,0
2023-10-29T04:26:00.186Z,0
2023-10-29T04:27:16.465Z,0
2023-10-29T04:28:32.754Z,0
2023-10-29T04:29:49.063Z,0
2023-10-29T04:31:05.301Z,0
2023-10-29T04:32:21.634Z,0
2023-10-29T04:33:37.891Z,0
2023-10-29T04:34:54.182Z,0
2023-10-29T04:36:10.481Z,0
2023-10-29T04:37:26.826Z,0
2023-10-29T04:38:43.105Z,0
2023-10-29T04:39:59.395Z,0
2023-10-29T04:41:15.702Z,0
2023-10-29T04:42:31.010Z,0
2023-10-29T04:43:47.252Z,0
2023-10-29T04:45:03.600Z,0
2023-10-29T04:46:19.883Z,0
2023-10-29T04:47:36.174Z,0
2023-10-29T04:48:52.478Z,0
2023-10-29T04:50:08.718Z,0
2023-10-29T04:51:25.026Z,0
2023-10-29T04:52:41.344Z,0
2023-10-29T04:53:57.596Z,0
2023-10-29T04:55:13.931Z,0
2023-10-29T04:56:30.226Z,0
2023-10-29T04:57:46.537Z,0
2023-10-29T04:59:02.900Z,0
2023-10-29T05:00:19.188Z,0
2023-10-29T05:01:35.481Z,0
2023-10-29T05:02:51.814Z,0
2023-10-29T05:04:08.072Z,0
2023-10-29T05:05:24.364Z,0
2023-10-29T05:06:40.654Z,0
2023-10-29T05:07:57.010Z,0
2023-10-29T05:09:13.301Z,0
2023-10-29T05:10:29.581Z,0
2023-10-29T05:11:45.875Z,0
2023-10-29T05:13:02.179Z,0
2023-10-29T05:14:18.467Z,0
2023-10-29T05:15:34.886Z,0
2023-10-29T05:16:51.132Z,0
2023-10-29T05:18:07.472Z,0
2023-10-29T05:19:23.760Z,0
2023-10-29T05:20:40.047Z,0
2023-10-29T05:21:56.350Z,0
2023-10-29T05:23:12.653Z,0
2023-10-29T05:24:28.936Z,0
2023-10-29T05:25:45.231Z,0
2023-10-29T05:27:01.482Z,0
2023-10-29T05:28:17.815Z,0
2023-10-29T05:29:34.106Z,0
2023-10-29T05:30:50.358Z,0
2023-10-29T05:32:05.600Z,0
2023-10-29T05:33:21.796Z,0
2023-10-29T05:34:38.096Z,0
2023-10-29T05:35:54.322Z,0
2023-10-29T05:37:10.573Z,0
2023-10-29T05:38:26.762Z,0
2023-10-29T05:39:43.044Z,0
2023-10-29T05:40:59.280Z,0
2023-10-29T05:42:15.514Z,0
2023-10-29T05:43:31.757Z,0
2023-10-29T05:44:47.956Z,0
2023-10-29T05:46:04.249Z,0
2023-10-29T05:47:20.482Z,0
2023-10-29T05:48:35.738Z,0
2023-10-29T05:49:51.931Z,0
2023-10-29T05:51:08.220Z,0
2023-10-29T05:52:24.468Z,0
2023-10-29T05:53:40.693Z,0
2023-10-29T05:54:56.889Z,0
2023-10-29T05:56:13.134Z,0
2023-10-29T05:57:29.366Z,0
2023-10-29T05:58:45.650Z,0
2023-10-29T06:00:01.898Z,0
2023-10-29T06:01:18.140Z,0
2023-10-29T06:02:34.363Z,0
2023-10-29T06:03:50.609Z,0
2023-10-29T06:05:05.820Z,5
2023-10-29T06:06:22.102Z,5
2023-10-29T06:07:38.301Z,5
2023-10-29T06:08:54.577Z,5
2023-10-29T06:10:10.826Z,5
2023-10-29T06:11:27.069Z,5
2023-10-29T06:12:43.307Z,5
2023-10-29T06:13:59.557Z,11
2023-10-29T06:15:15.786Z,11
2023-10-29T06:16:32.022Z,11
2023-10-29T06:17:48.212Z,11
2023-10-29T06:19:04.454Z,11
2023-10-29T06:20:20.732Z,11
2023-10-29T06:21:36.007Z,11
2023-10-29T06:22:52.228Z,11
2023-10-29T06:24:08.475Z,16
2023-10-29T06:25:24.665Z,16
2023-10-29T06:26:40.961Z,16
2023-10-29T06:27:57.186Z,16
2023-10-29T06:29:13.385Z,16
2023-10-29T06:30:29.634Z,22
2023-10-29T06:31:45.904Z,22
2023-10-29T06:33:02.101Z,22
2023-10-29T06:34:18.389Z,28
2023-10-29T06:35:34.631Z,28
2023-10-29T06:36:50.867Z,28
2023-10-29T06:38:07.242Z,28
2023-10-29T06:39:23.463Z,28
2023-10-29T06:40:39.000Z,28
2023-10-29T06:41:55.948Z,28
2023-10-29T06:43:12.147Z,22
2023-10-29T06:44:28.426Z,22
2023-10-29T06:45:44.619Z,22
2023-10-29T06:47:00.914Z,22
2023-10-29T06:48:17.140Z,22
2023-10-29T06:49:33.337Z,22
2023-10-29T06:50:49.631Z,22
2023-10-29T06:52:05.871Z,22
2023-10-29T06:53:22.101Z,22
2023-10-29T06:54:38.463Z,22
2023-10-29T06:55:54.704Z,28
2023-10-29T06:57:10.911Z,28
2023-10-29T06:58:27.139Z,33
2023-10-29T06:59:43.421Z,33
2023-10-29T07:00:59.665Z,39
2023-10-29T07:02:15.904Z,39
2023-10-29T07:03:32.153Z,45
2023-10-29T07:04:48.378Z,45
2023-10-29T07:06:04.576Z,50
2023-10-29T07:07:20.862Z,56
2023-10-29T07:08:37.095Z,61
2023-10-29T07:09:53.350Z,67
2023-10-29T07:11:09.658Z,67
2023-10-29T07:12:25.945Z,73
2023-10-29T07:13:42.179Z,78
2023-10-29T07:14:58.422Z,78
2023-10-29T07:16:14.674Z,84
2023-10-29T07:17:30.892Z,84
2023-10-29T07:18:46.110Z,84
2023-10-29T07:20:02.415Z,90
2023-10-29T07:21:18.652Z,90
2023-10-29T07:22:34.892Z,90
2023-10-29T07:23:51.118Z,90
2023-10-29T07:25:07.357Z,84
2023-10-29T07:26:23.550Z,78
2023-10-29T07:27:39.849Z,78
2023-10-29T07:28:56.074Z,78
2023-10-29T07:30:12.283Z,78
2023-10-29T07:31:28.508Z,84
2023-10-29T07:32:44.749Z,84
2023-10-29T07:34:00.986Z,84
2023-10-29T07:35:17.364Z,90
2023-10-29T07:36:33.605Z,95
2023-10-29T07:37:49.856Z,106
2023-10-29T07:39:06.098Z,112
2023-10-29T07:40:22.319Z,118
2023-10-29T07:41:38.565Z,118
2023-10-29T07:42:54.808Z,118
2023-10-29T07:44:11.056Z,118
2023-10-29T07:45:27.282Z,123
2023-10-29T07:46:43.513Z,129
2023-10-29T07:47:59.761Z,140
2023-10-29T07:49:15.993Z,140
2023-10-29T07:50:32.243Z,140
2023-10-29T07:51:47.504Z,135
2023-10-29T07:53:03.713Z,135
2023-10-29T07:54:19.966Z,135
2023-10-29T07:55:36.216Z,140
2023-10-29T07:56:52.448Z,146
2023-10-29T07:58:08.692Z,146
2023-10-29T07:59:24.943Z,151
2023-10-29T08:00:41.173Z,151
2023-10-29T08:01:57.405Z,146
2023-10-29T08:03:13.654Z,140
2023-10-29T08:04:29.883Z,123
2023-10-29T08:05:46.125Z,112
2023-10-29T08:07:02.000Z,101
2023-10-29T08:08:17.632Z,101
2023-10-29T08:09:33.866Z,101
2023-10-29T08:10:50.102Z,101
2023-10-29T08:12:06.343Z,106
2023-10-29T08:13:22.584Z,112
2023-10-29T08:14:38.814Z,112
2023-10-29T08:15:55.066Z,101
2023-10-29T08:17:11.301Z,95
2023-10-29T08:18:27.536Z,90
2023-10-29T08:19:43.778Z,84
2023-10-29T08:21:00.015Z,84
2023-10-29T08:22:16.259Z,78
2023-10-29T08:23:32.491Z,78
2023-10-29T08:24:47.745Z,78
2023-10-29T08:26:03.984Z,78
2023-10-29T08:27:20.234Z,78
2023-10-29T08:28:36.470Z,78
2023-10-29T08:29:52.706Z,78
2023-10-29T08:31:08.949Z,78
2023-10-29T08:32:25.184Z,78
2023-10-29T08:33:41.424Z,78
2023-10-29T08:34:57.658Z,73
2023-10-29T08:36:13.896Z,73
2023-10-29T08:37:30.140Z,73
2023-10-29T08:38:46.387Z,78
2023-10-29T08:40:02.618Z,84
2023-10-29T08:41:18.983Z,90
2023-10-29T08:42:35.220Z,106
2023-10-29T08:43:51.474Z,123
2023-10-29T08:45:07.694Z,129
2023-10-29T08:46:23.940Z,135
2023-10-29T08:47:40.179Z,140
2023-10-29T08:48:56.420Z,146
2023-10-29T08:50:12.661Z,146
2023-10-29T08:51:28.889Z,151
2023-10-29T08:52:45.138Z,163
2023-10-29T08:54:01.379Z,168
2023-10-29T08:55:17.605Z,180
2023-10-29T08:56:33.865Z,185
2023-10-29T08:57:49.114Z,191
2023-10-29T08:59:05.347Z,191
2023-10-29T09:00:21.600Z,191
2023-10-29T09:01:37.822Z,191
2023-10-29T09:02:54.069Z,196
2023-10-29T09:04:10.306Z,196
2023-10-29T09:05:26.548Z,196
2023-10-29T09:06:42.784Z,208
2023-10-29T09:07:59.011Z,208
2023-10-29T09:09:15.263Z,213
2023-10-29T09:10:31.510Z,219
2023-10-29T09:11:47.726Z,213
2023-10-29T09:13:03.965Z,208
2023-10-29T09:14:19.230Z,208
2023-10-29T09:15:35.473Z,208
2023-10-29T09:16:51.708Z,208
2023-10-29T09:18:07.948Z,202
2023-10-29T09:19:24.185Z,196
2023-10-29T09:20:40.442Z,180
2023-10-29T09:21:56.660Z,168
2023-10-29T09:23:12.909Z,163
2023-10-29T09:24:29.144Z,151
2023-10-29T09:25:45.388Z,140
2023-10-29T09:27:01.635Z,135
2023-10-29T09:28:17.878Z,123
2023-10-29T09:29:34.117Z,123
2023-10-29T09:30:49.360Z,118
2023-10-29T09:32:05.603Z,118
2023-10-29T09:33:21.837Z,106
2023-10-29T09:34:38.082Z,118
2023-10-29T09:35:54.317Z,123
2023-10-29T09:37:10.556Z,123
2023-10-29T09:38:26.810Z,123
2023-10-29T09:39:43.047Z,123
2023-10-29T09:40:59.274Z,123
2023-10-29T09:42:15.529Z,118
2023-10-29T09:43:31.760Z,118
2023-10-29T09:44:47.992Z,118
2023-10-29T09:46:04.243Z,112
2023-10-29T09:47:19.492Z,106
2023-10-29T09:48:35.739Z,101
2023-10-29T09:49:51.975Z,95
2023-10-29T09:51:08.210Z,95
2023-10-29T09:52:24.452Z,95
2023-10-29T09:53:40.686Z,95
2023-10-29T09:54:56.940Z,95
2023-10-29T09:56:13.162Z,101
2023-10-29T09:57:29.416Z,106
2023-10-29T09:58:45.655Z,112
2023-10-29T10:00:01.896Z,129
2023-10-29T10:02:34.368Z,163
2023-10-29T10:03:49.631Z,168
2023-10-29T10:05:05.870Z,180
2023-10-29T10:06:22.107Z,191
2023-10-29T10:07:38.332Z,202
2023-10-29T10:08:54.578Z,208
2023-10-29T10:10:10.832Z,208
2023-10-29T10:11:27.047Z,219
2023-10-29T10:12:43.296Z,225
2023-10-29T10:13:59.545Z,230
2023-10-29T10:15:15.777Z,230
2023-10-29T10:16:32.016Z,230
2023-10-29T10:17:48.254Z,230
2023-10-29T10:19:04.509Z,230
2023-10-29T10:20:19.766Z,236
2023-10-29T10:21:35.986Z,241
2023-10-29T10:22:52.245Z,253
2023-10-29T10:24:08.468Z,253
2023-10-29T10:25:24.719Z,247
2023-10-29T10:26:40.952Z,241
2023-10-29T10:27:57.189Z,225
2023-10-29T10:29:13.446Z,219
2023-10-29T10:30:29.674Z,208
2023-10-29T10:31:45.908Z,208
2023-10-29T10:33:02.138Z,208
2023-10-29T10:34:18.403Z,213
2023-10-29T10:35:34.642Z,219
2023-10-29T10:36:49.891Z,225
2023-10-29T10:38:06.126Z,219
2023-10-29T10:39:22.367Z,219
2023-10-29T10:40:38.608Z,225
2023-10-29T10:41:54.847Z,225
2023-10-29T10:43:11.078Z,230
2023-10-29T10:44:27.336Z,236
2023-10-29T10:46:59.791Z,241
2023-10-29T10:48:16.039Z,241
2023-10-29T10:49:32.286Z,241
2023-10-29T10:50:48.515Z,236
2023-10-29T10:52:04.770Z,230
2023-10-29T10:53:20.003Z,230
2023-10-29T10:54:36.247Z,230
2023-10-29T10:55:52.501Z,225
2023-10-29T10:57:08.734Z,219
2023-10-29T10:58:24.984Z,219
2023-10-29T10:59:41.209Z,213
2023-10-29T11:00:57.435Z,208
2023-10-29T11:02:13.700Z,208
2023-10-29T11:03:29.938Z,213
2023-10-29T11:04:46.173Z,213
2023-10-29T11:06:02.420Z,219
2023-10-29T11:07:18.641Z,230
2023-10-29T11:08:34.897Z,236
2023-10-29T11:09:50.130Z,236
2023-10-29T11:11:06.386Z,230
2023-10-29T11:12:22.616Z,230
2023-10-29T11:13:38.856Z,225
2023-10-29T11:14:55.093Z,225
2023-10-29T11:16:11.336Z,219
2023-10-29T11:17:27.570Z,219
2023-10-29T11:18:43.826Z,213
2023-10-29T11:20:00.051Z,208
2023-10-29T11:21:16.280Z,202
2023-10-29T11:22:32.513Z,196
2023-10-29T11:23:48.750Z,196
2023-10-29T11:25:05.009Z,202
2023-10-29T11:26:20.266Z,202
2023-10-29T11:27:36.496Z,196
2023-10-29T11:28:52.746Z,196
2023-10-29T11:30:08.970Z,191
2023-10-29T11:31:25.223Z,191
2023-10-29T11:32:41.454Z,191
2023-10-29T11:33:56.718Z,185
2023-10-29T11:35:12.947Z,185
2023-10-29T11:36:29.186Z,180
2023-10-29T11:37:45.432Z,174
2023-10-29T11:39:01.670Z,174
2023-10-29T11:40:17.897Z,174
2023-10-29T11:41:34.135Z,174
2023-10-29T11:42:50.380Z,168
2023-10-29T11:44:06.612Z,168
2023-10-29T11:45:22.866Z,174
2023-10-29T11:46:39.088Z,174
2023-10-29T11:47:55.343Z,174
2023-10-29T11:49:11.583Z,180
2023-10-29T11:50:26.832Z,185
2023-10-29T11:51:43.076Z,196
2023-10-29T11:52:59.302Z,196
2023-10-29T11:54:15.558Z,202
2023-10-29T11:55:31.778Z,208
2023-10-29T11:56:48.033Z,213
2023-10-29T11:58:04.265Z,219
2023-10-29T11:59:20.498Z,225
2023-10-29T12:00:36.748Z,219
2023-10-29T12:01:52.975Z,219
2023-10-29T12:03:09.207Z,213
2023-10-29T12:04:25.457Z,213
2023-10-29T12:05:41.703Z,208
2023-10-29T12:06:56.966Z,202
2023-10-29T12:08:13.191Z,196
2023-10-29T12:09:29.417Z,191
2023-10-29T12:10:45.665Z,180
2023-10-29T12:12:01.914Z,174
2023-10-29T12:13:18.153Z,174
2023-10-29T12:14:34.386Z,168
2023-10-29T12:15:50.624Z,168
2023-10-29T12:17:06.874Z,163
2023-10-29T12:18:23.094Z,157
2023-10-29T12:19:39.330Z,157
2023-10-29T12:20:55.583Z,157
2023-10-29T12:22:11.000Z,151
2023-10-29T12:23:27.078Z,146
2023-10-29T12:24:43.325Z,146
2023-10-29T12:25:59.555Z,140
2023-10-29T12:27:15.787Z,140
2023-10-29T12:28:32.020Z,140
2023-10-29T12:29:48.260Z,140
2023-10-29T12:31:04.520Z,140
2023-10-29T12:32:20.742Z,146
2023-10-29T12:33:36.989Z,157
2023-10-29T12:34:53.226Z,168
2023-10-29T12:36:09.464Z,191
2023-10-29T12:37:25.711Z,213
2023-10-29T12:38:41.931Z,230
2023-10-29T12:39:58.294Z,230
2023-10-29T12:41:14.537Z,230
2023-10-29T12:42:30.772Z,225
2023-10-29T12:43:47.037Z,241
2023-10-29T12:45:03.255Z,247
2023-10-29T12:46:19.514Z,247
2023-10-29T12:47:35.737Z,247
2023-10-29T12:48:51.968Z,253
2023-10-29T12:50:08.216Z,258
2023-10-29T12:51:24.460Z,236
2023-10-29T12:52:40.700Z,225
2023-10-29T12:53:56.932Z,208
2023-10-29T12:55:13.170Z,202
2023-10-29T12:56:28.425Z,191
2023-10-29T12:57:44.656Z,174
2023-10-29T12:59:00.912Z,163
2023-10-29T13:00:17.159Z,151
2023-10-29T13:01:33.410Z,146
2023-10-29T13:02:49.641Z,146
2023-10-29T13:04:05.885Z,135
2023-10-29T13:05:22.102Z,129
2023-10-29T13:06:38.348Z,118
2023-10-29T13:07:54.595Z,106
2023-10-29T13:09:10.821Z,95
2023-10-29T13:10:27.049Z,90
2023-10-29T13:11:43.307Z,90
2023-10-29T13:12:58.559Z,90
2023-10-29T13:14:14.788Z,95
2023-10-29T13:15:31.032Z,101
2023-10-29T13:16:47.284Z,95
2023-10-29T13:18:03.511Z,90
2023-10-29T13:19:19.747Z,84
2023-10-29T13:20:36.000Z,78
2023-10-29T13:21:52.234Z,78
2023-10-29T13:23:08.491Z,78
2023-10-29T13:24:24.711Z,84
2023-10-29T13:25:40.949Z,95
2023-10-29T13:26:57.199Z,112
2023-10-29T13:28:13.440Z,123
2023-10-29T13:29:29.000Z,129
2023-10-29T13:30:46.051Z,129
2023-10-29T13:32:02.279Z,123
2023-10-29T13:33:18.491Z,118
2023-10-29T13:34:34.733Z,106
2023-10-29T13:35:50.998Z,101
2023-10-29T13:37:07.238Z,101
2023-10-29T13:38:23.485Z,101
2023-10-29T13:39:39.694Z,112
2023-10-29T13:40:55.958Z,123
2023-10-29T13:42:12.199Z,129
2023-10-29T13:43:28.410Z,140
2023-10-29T13:44:44.650Z,151
2023-10-29T13:45:59.935Z,151
2023-10-29T13:47:16.168Z,146
2023-10-29T13:48:32.382Z,146
2023-10-29T13:49:48.652Z,140
2023-10-29T13:51:04.883Z,135
2023-10-29T13:52:21.130Z,135
2023-10-29T13:53:37.344Z,129
2023-10-29T13:54:53.577Z,135
2023-10-29T13:56:09.821Z,146
2023-10-29T13:57:26.050Z,163
2023-10-29T13:58:42.310Z,168
2023-10-29T13:59:58.562Z,174
2023-10-29T14:01:14.804Z,174
2023-10-29T14:02:30.050Z,180
2023-10-29T14:03:46.266Z,174
2023-10-29T14:05:02.500Z,174
2023-10-29T14:06:18.750Z,168
2023-10-29T14:07:35.001Z,174
2023-10-29T14:08:51.244Z,174
2023-10-29T14:10:07.483Z,163
2023-10-29T14:11:23.724Z,146
2023-10-29T14:12:39.965Z,123
2023-10-29T14:13:56.178Z,101
2023-10-29T14:15:12.416Z,90
2023-10-29T14:16:28.690Z,90
2023-10-29T14:17:44.906Z,90
2023-10-29T14:19:00.168Z,84
2023-10-29T14:20:16.423Z,73
2023-10-29T14:21:32.647Z,56
2023-10-29T14:22:48.871Z,45
2023-10-29T14:24:05.144Z,33
2023-10-29T14:25:21.374Z,33
2023-10-29T14:26:37.612Z,33
2023-10-29T14:27:53.841Z,45
2023-10-29T14:29:10.095Z,61
2023-10-29T14:30:26.334Z,61
2023-10-29T14:31:42.542Z,61
2023-10-29T14:32:58.789Z,78
2023-10-29T14:34:15.014Z,84
2023-10-29T14:35:30.299Z,84
2023-10-29T14:36:46.522Z,73
2023-10-29T14:38:02.748Z,61
2023-10-29T14:39:19.029Z,56
2023-10-29T14:40:35.242Z,61
2023-10-29T14:41:51.497Z,61
2023-10-29T14:43:07.744Z,61
2023-10-29T14:44:23.954Z,73
2023-10-29T14:45:40.211Z,67
2023-10-29T14:46:56.457Z,56
2023-10-29T14:48:12.666Z,50
2023-10-29T14:49:28.924Z,50
2023-10-29T14:50:45.145Z,56
2023-10-29T14:52:00.418Z,56
2023-10-29T14:53:16.637Z,61
2023-10-29T14:54:32.895Z,67
2023-10-29T14:55:49.113Z,73
2023-10-29T14:57:05.344Z,73
2023-10-29T14:58:21.622Z,73
2023-10-29T14:59:37.848Z,73
2023-10-29T15:00:54.061Z,73
2023-10-29T15:02:10.334Z,67
2023-10-29T15:03:26.576Z,67
2023-10-29T15:04:42.778Z,61
2023-10-29T15:05:59.020Z,61
2023-10-29T15:07:15.293Z,61
2023-10-29T15:08:30.515Z,61
2023-10-29T15:09:46.753Z,56
2023-10-29T15:11:03.005Z,56
2023-10-29T15:12:19.236Z,50
2023-10-29T15:13:35.466Z,50
2023-10-29T15:14:51.709Z,50
2023-10-29T15:16:07.949Z,45
2023-10-29T15:17:24.000Z,45
2023-10-29T15:18:40.434Z,39
2023-10-29T15:19:56.697Z,39
2023-10-29T15:21:12.928Z,33
2023-10-29T15:22:29.136Z,28
2023-10-29T15:23:45.408Z,22
2023-10-29T15:25:00.644Z,22
2023-10-29T15:26:16.889Z,22
2023-10-29T15:27:33.150Z,22
2023-10-29T15:28:49.352Z,16
2023-10-29T15:30:05.604Z,16
2023-10-29T15:31:21.864Z,11
2023-10-29T15:32:38.000Z,11
2023-10-29T15:33:54.305Z,11
2023-10-29T15:35:10.573Z,11
2023-10-29T15:36:26.814Z,5
2023-10-29T15:37:43.048Z,5
2023-10-29T15:38:59.265Z,5
2023-10-29T15:40:15.544Z,5
2023-10-29T15:41:31.896Z,5
2023-10-29T15:42:48.134Z,0
2023-10-29T15:44:04.346Z,0
2023-10-29T15:45:20.618Z,0
2023-10-29T15:46:36.841Z,0
2023-10-29T15:47:53.091Z,0
2023-10-29T15:49:09.309Z,0
2023-10-29T15:50:24.573Z,0
2023-10-29T15:51:40.807Z,0
2023-10-29T15:52:57.074Z,0
2023-10-29T15:54:13.309Z,0
2023-10-29T15:55:29.569Z,0
2023-10-29T15:56:45.782Z,0
2023-10-29T15:58:02.013Z,0
2023-10-29T15:59:18.241Z,0
2023-10-29T16:00:34.516Z,0
2023-10-29T16:01:50.727Z,0
2023-10-29T16:03:06.963Z,0
2023-10-29T16:04:23.204Z,0
2023-10-29T16:05:39.469Z,0
2023-10-29T16:06:55.803Z,0
2023-10-29T16:08:12.075Z,0
2023-10-29T16:09:28.324Z,0
2023-10-29T16:10:44.554Z,0
2023-10-29T16:12:00.794Z,0
2023-10-29T16:13:17.003Z,0
2023-10-29T16:14:33.252Z,0
2023-10-29T16:15:49.494Z,0
2023-10-29T16:17:05.720Z,0
2023-10-29T16:18:22.017Z,0
2023-10-29T16:19:38.315Z,0
2023-10-29T16:20:54.634Z,0
2023-10-29T16:22:10.925Z,0
2023-10-29T16:23:26.241Z,0
2023-10-29T16:24:42.535Z,0
2023-10-29T16:25:58.825Z,0
2023-10-29T16:27:15.126Z,0
2023-10-29T16:28:31.409Z,0
2023-10-29T16:29:47.704Z,0
2023-10-29T16:31:03.976Z,0
2023-10-29T16:32:20.264Z,0
2023-10-29T16:33:36.592Z,0
2023-10-29T16:34:52.858Z,0
2023-10-29T16:36:09.146Z,0
2023-10-29T16:37:25.438Z,0
2023-10-29T16:38:41.757Z,0
2023-10-29T16:39:58.147Z,0
2023-10-29T16:41:14.467Z,0
2023-10-29T16:42:30.733Z,0
2023-10-29T16:43:47.031Z,0
2023-10-29T16:45:03.325Z,0
2023-10-29T16:46:19.646Z,0
2023-10-29T16:47:35.908Z,0
2023-10-29T16:48:52.204Z,0
2023-10-29T16:50:08.529Z,0
2023-10-29T16:51:24.785Z,0
2023-10-29T16:52:41.126Z,0
2023-10-29T16:53:57.405Z,0
2023-10-29T16:55:13.672Z,0
2023-10-29T16:56:29.014Z,0
2023-10-29T16:57:45.275Z,0
2023-10-29T16:59:01.592Z,0
2023-10-29T17:00:17.890Z,0
2023-10-29T17:01:34.190Z,0
2023-10-29T17:02:50.478Z,0
2023-10-29T17:04:06.784Z,0
2023-10-29T17:05:23.039Z,0
2023-10-29T17:06:39.335Z,0
2023-10-29T17:07:55.665Z,0
2023-10-29T17:09:11.955Z,0
2023-10-29T17:10:28.214Z,0
2023-10-29T17:11:44.504Z,0
2023-10-29T17:13:00.959Z,0
2023-10-29T17:14:17.218Z,0
2023-10-29T17:15:33.505Z,0
2023-10-29T17:16:49.831Z,0
2023-10-29T17:18:06.139Z,0
2023-10-29T17:19:22.421Z,0
2023-10-29T17:20:38.694Z,0
2023-10-29T17:21:55.005Z,0
2023-10-29T17:23:11.311Z,0
2023-10-29T17:24:27.588Z,0
2023-10-29T17:25:43.893Z,0
2023-10-29T17:27:00.190Z,0
2023-10-29T17:28:16.477Z,0
2023-10-29T17:29:31.758Z,0
2023-10-29T17:30:48.084Z,0
2023-10-29T17:32:04.378Z,0
2023-10-29T17:33:20.666Z,0
2023-10-29T17:34:36.960Z,0
2023-10-29T17:35:53.247Z,0
2023-10-29T17:37:09.550Z,0
2023-10-29T17:38:25.803Z,0
2023-10-29T17:39:42.103Z,0
2023-10-29T17:40:58.438Z,0
2023-10-29T17:42:14.732Z,0
2023-10-29T17:43:31.016Z,0
2023-10-29T17:44:47.315Z,0
2023-10-29T17:46:02.624Z,0
2023-10-29T17:47:18.924Z,0
2023-10-29T17:48:35.219Z,0
2023-10-29T17:49:51.508Z,0
2023-10-29T17:51:07.764Z,0
2023-10-29T17:52:24.085Z,0
2023-10-29T17:53:40.390Z,0
2023-10-29T17:54:56.686Z,0
2023-10-29T17:56:12.937Z,0
2023-10-29T17:57:29.258Z,0
2023-10-29T17:58:45.526Z,0
2023-10-29T18:00:01.859Z,0
2023-10-29T18:01:18.143Z,0
2023-10-29T18:02:34.551Z,0
2023-10-29T18:03:50.846Z,0
2023-10-29T18:05:07.110Z,0
2023-10-29T18:06:23.435Z,0
2023-10-29T18:07:39.729Z,0
2023-10-29T18:08:56.024Z,0
2023-10-29T18:10:12.310Z,0
2023-10-29T18:11:28.568Z,0
2023-10-29T18:12:44.863Z,0
2023-10-29T18:14:01.000Z,0
2023-10-29T18:15:17.458Z,0